Startpagina
METAR-TAF:

METAR-TAF

Vliegvelden :

Aéroport de Lille-Lesquin

Rijsel, Frankrijk

breedte: 50-34N, lengte: 003-06E, hoogte: 48 m

Actueel weer

Dit bericht is 27 minuten geleden gemaakt, om 09:30 UTC
Wind 8 kt uit het oostnoordoosten, variërend tussen het noordnoordoosten en het oostzuidoosten
Temperatuur 18°C
Vochtigheid 56%
Druk 1028 hPa
Zicht 10 km of meer
Weinig wolken op 3500 ft

METAR: LFQQ 120930Z AUTO 07008KT 020V110 9999 FEW035 18/09 Q1028 NOSIG

Tijdstip: 11:57 (09:57 UTC)

Verwachting

Dit bericht is 4 uur en het 57 minuten geleden gemaakt, om 05:00 UTC
Verwachting geldig van 12 om 06 UTC tot 13 om 12 UTC
Wind 7 kt uit het noordnoordoosten
Zicht 10 km of meer
geen wolken onder 1500 m en geen cumulonimbus

TAF: LFQQ 120500Z 1206/1312 02007KT CAVOK

Waarnemingen en weersverwachtingen van meer dan 4000 vliegvelden (METAR en TAF).

De beschikbare stations zijn de gele en rode punten op de kaart.

Ga met uw muis naar het station om de naam te zien.

Klik dan om waarnemingen en weersverwachtingen te zien.

kaart wijzigen: klik op de groene knoppen met een zwart kruis om in te zoomen, op de groene knop met een streepje om uit te zoomen of op de groene pijlen voor aangrenzende kaarten.


METAR-TAF: